createdAt,value
2018-04-27T00:08:30.332Z,1008.99
2018-04-27T00:18:30.326Z,1008.85
2018-04-27T00:28:31.416Z,1008.79
2018-04-27T00:38:30.363Z,1008.78
2018-04-27T00:48:30.344Z,1008.66
2018-04-27T00:58:30.373Z,1008.67
2018-04-27T01:08:30.383Z,1008.48
2018-04-27T01:18:30.380Z,1008.48
2018-04-27T01:28:30.385Z,1008.37
2018-04-27T01:38:30.395Z,1008.35
2018-04-27T01:48:30.438Z,1008.22
2018-04-27T01:58:30.419Z,1008.18
2018-04-27T02:08:30.443Z,1008.23
2018-04-27T02:18:30.441Z,1008.1
2018-04-27T02:28:30.442Z,1008.01
2018-04-27T02:38:30.448Z,1007.95
2018-04-27T02:48:30.459Z,1007.92
2018-04-27T02:58:30.467Z,1007.91
2018-04-27T03:08:30.474Z,1007.86
2018-04-27T03:18:30.484Z,1007.91
2018-04-27T03:28:30.470Z,1007.77
2018-04-27T03:38:30.485Z,1007.73
2018-04-27T03:48:30.504Z,1007.64
2018-04-27T03:58:31.618Z,1007.57
2018-04-27T04:08:30.528Z,1007.55
2018-04-27T04:18:30.546Z,1007.48
2018-04-27T04:28:30.530Z,1007.49
2018-04-27T04:38:30.547Z,1007.44
2018-04-27T04:48:30.554Z,1007.58
2018-04-27T04:58:30.566Z,1007.52
2018-04-27T05:08:30.569Z,1007.58
2018-04-27T05:18:31.595Z,1007.45
2018-04-27T05:28:30.575Z,1007.35
2018-04-27T05:38:30.587Z,1007.26
2018-04-27T05:48:30.596Z,1007.29
2018-04-27T05:58:30.595Z,1007.31
2018-04-27T06:08:30.621Z,1007.23
2018-04-27T06:18:30.631Z,1007.19
2018-04-27T06:28:30.624Z,1007.15
2018-04-27T06:38:30.624Z,1006.97
2018-04-27T06:48:30.636Z,1007.05
2018-04-27T06:58:39.093Z,1007.02
2018-04-27T07:08:42.337Z,1007.02
2018-04-27T07:18:30.659Z,1006.89
2018-04-27T07:28:30.684Z,1006.98
2018-04-27T07:38:30.732Z,1006.96
2018-04-27T07:48:30.713Z,1006.96
2018-04-27T07:58:30.728Z,1006.86
2018-04-27T08:08:30.841Z,1006.73
2018-04-27T08:18:30.709Z,1006.64
2018-04-27T08:28:30.703Z,1006.54
2018-04-27T08:38:30.692Z,1006.38
2018-04-27T08:48:30.695Z,1006.38
2018-04-27T08:58:30.734Z,1006.38
2018-04-27T09:08:30.703Z,1006.37
2018-04-27T09:18:30.710Z,1006.29
2018-04-27T09:28:30.697Z,1006.23
2018-04-27T09:38:30.806Z,1006.16
2018-04-27T09:48:30.737Z,1006.04
2018-04-27T09:58:30.783Z,1005.89
2018-04-27T10:08:30.743Z,1005.67
2018-04-27T10:18:30.765Z,1005.61
2018-04-27T10:28:30.706Z,1005.64
2018-04-27T10:38:30.744Z,1005.5
2018-04-27T10:48:30.745Z,1005.27
2018-04-27T10:58:30.768Z,1005.16
2018-04-27T11:08:30.754Z,1004.94
2018-04-27T11:38:30.884Z,1004.41
2018-04-27T11:48:34.288Z,1004.51
2018-04-27T11:58:30.734Z,1004.27
2018-04-27T12:18:30.780Z,1003.91
2018-04-27T12:28:30.723Z,1003.64
2018-04-27T12:38:30.727Z,1003.49
2018-04-27T12:48:30.739Z,1003.13
2018-04-27T13:18:30.756Z,1002.87
2018-04-27T13:38:30.740Z,1002.55
2018-04-27T13:48:30.758Z,1002.42
2018-04-27T14:28:30.869Z,1002.02
2018-04-27T14:38:35.429Z,1001.82
2018-04-27T14:58:30.759Z,1001.68
2018-04-27T15:08:30.771Z,1001.54
2018-04-27T15:18:30.832Z,1001.52
2018-04-27T15:28:30.749Z,1001.37
2018-04-27T15:48:30.768Z,1001.26
2018-04-27T15:58:30.746Z,1001.33
2018-04-27T16:08:30.781Z,1001.2
2018-04-27T16:18:30.794Z,1001.19
2018-04-27T16:48:30.772Z,1001.06
2018-04-27T16:58:30.756Z,1001.08
2018-04-27T17:08:30.775Z,1000.94
2018-04-27T17:18:30.758Z,1000.78
2018-04-27T17:28:31.924Z,1000.6
2018-04-27T17:38:30.779Z,1000.58
2018-04-27T17:48:30.753Z,1000.58
2018-04-27T17:58:30.783Z,1000.64
2018-04-27T18:28:30.763Z,1000.72
2018-04-27T18:58:30.776Z,1000.68
2018-04-27T20:08:30.828Z,1000.51
2018-04-27T20:18:30.815Z,1000.41
2018-04-27T21:08:30.761Z,1000.03
2018-04-27T21:18:30.748Z,999.92
2018-04-27T21:28:30.749Z,999.72
2018-04-27T22:08:35.526Z,999.71
2018-04-27T22:18:30.741Z,999.85
2018-04-27T22:28:30.815Z,999.91
2018-04-27T22:38:30.767Z,999.95
2018-04-27T22:48:30.751Z,999.98
2018-04-27T22:58:30.735Z,999.98
2018-04-27T23:08:30.760Z,999.92
2018-04-27T23:18:30.783Z,999.91
2018-04-27T23:28:30.744Z,999.84
2018-04-27T23:38:30.741Z,999.8
2018-04-27T23:48:30.751Z,999.81
2018-04-27T23:58:30.746Z,999.8
